createdAt,value
2018-01-28T00:08:59.656Z,12
2018-01-28T00:18:59.751Z,12
2018-01-28T00:28:59.651Z,11
2018-01-28T00:38:59.579Z,11
2018-01-28T00:48:59.696Z,11
2018-01-28T00:58:59.572Z,11
2018-01-28T01:08:59.585Z,13
2018-01-28T01:18:59.717Z,11
2018-01-28T01:28:59.528Z,10
2018-01-28T01:38:59.636Z,11
2018-01-28T01:48:59.600Z,11
2018-01-28T01:58:59.657Z,12
2018-01-28T02:08:59.613Z,10
2018-01-28T02:19:00.103Z,9
2018-01-28T02:28:59.665Z,9
2018-01-28T02:38:59.700Z,10
2018-01-28T02:48:59.629Z,8
2018-01-28T02:58:59.721Z,9
2018-01-28T03:08:59.726Z,7
2018-01-28T03:18:59.698Z,7
2018-01-28T03:28:59.749Z,10
2018-01-28T03:38:59.654Z,8
2018-01-28T03:48:59.758Z,10
2018-01-28T03:58:59.749Z,10
2018-01-28T04:08:59.849Z,12
2018-01-28T04:18:59.722Z,12
2018-01-28T04:28:59.811Z,12
2018-01-28T04:38:59.729Z,12
2018-01-28T04:48:59.818Z,12
2018-01-28T04:58:59.803Z,12
2018-01-28T05:08:59.863Z,12
2018-01-28T05:18:59.799Z,13
2018-01-28T05:28:59.760Z,15
2018-01-28T05:38:59.824Z,16
2018-01-28T05:48:59.759Z,16
2018-01-28T05:58:59.782Z,18
2018-01-28T06:08:59.805Z,16
2018-01-28T06:19:00.319Z,16
2018-01-28T06:28:59.860Z,20
2018-01-28T06:38:59.905Z,19
2018-01-28T06:48:59.873Z,21
2018-01-28T06:58:59.990Z,20
2018-01-28T07:08:59.860Z,23
2018-01-28T07:18:59.952Z,23
2018-01-28T07:28:59.982Z,23
2018-01-28T07:38:59.863Z,24
2018-01-28T07:49:00.001Z,22
2018-01-28T07:58:59.879Z,23
2018-01-28T08:09:00.048Z,18
2018-01-28T08:18:59.902Z,18
2018-01-28T08:28:59.963Z,19
2018-01-28T08:38:59.963Z,18
2018-01-28T08:49:00.025Z,17
2018-01-28T08:58:59.934Z,24
2018-01-28T09:09:00.024Z,24
2018-01-28T09:19:00.049Z,26
2018-01-28T09:29:00.076Z,33
2018-01-28T09:39:00.232Z,28
2018-01-28T09:49:00.257Z,38
2018-01-28T09:59:00.197Z,41
2018-01-28T10:09:00.138Z,46
2018-01-28T10:19:04.442Z,42
2018-01-28T10:29:13.659Z,39
2018-01-28T10:39:00.158Z,42
2018-01-28T10:49:00.227Z,41
2018-01-28T10:59:00.114Z,33
2018-01-28T11:09:00.104Z,35
2018-01-28T11:19:00.165Z,39
2018-01-28T11:29:00.171Z,28
2018-01-28T11:39:00.114Z,24
2018-01-28T11:49:00.229Z,25
2018-01-28T11:59:00.165Z,23
2018-01-28T12:09:00.214Z,24
2018-01-28T12:19:00.160Z,25
2018-01-28T12:29:00.265Z,24
2018-01-28T12:39:00.206Z,25
2018-01-28T12:49:00.277Z,24
2018-01-28T12:59:00.233Z,24
2018-01-28T13:09:00.253Z,26
2018-01-28T13:19:00.175Z,22
2018-01-28T13:29:00.142Z,21
2018-01-28T13:39:00.244Z,25
2018-01-28T13:49:00.225Z,26
2018-01-28T13:59:00.329Z,27
2018-01-28T14:09:00.229Z,25
2018-01-28T14:19:00.302Z,27
2018-01-28T14:29:00.271Z,29
2018-01-28T14:39:00.376Z,22
2018-01-28T14:49:00.395Z,22
2018-01-28T14:59:00.387Z,22
2018-01-28T15:09:00.469Z,25
2018-01-28T15:19:00.412Z,23
2018-01-28T15:29:00.322Z,19
2018-01-28T15:39:00.395Z,19
2018-01-28T15:49:00.338Z,19
2018-01-28T15:59:00.361Z,23
2018-01-28T16:09:00.400Z,25
2018-01-28T16:19:00.445Z,17
2018-01-28T16:29:00.501Z,26
2018-01-28T16:39:00.409Z,20
2018-01-28T16:49:00.453Z,24
2018-01-28T16:59:00.458Z,24
2018-01-28T17:09:00.594Z,23
2018-01-28T17:19:00.689Z,31
2018-01-28T17:29:00.998Z,23
2018-01-28T17:39:00.777Z,27
2018-01-28T17:49:00.691Z,20
2018-01-28T17:59:00.616Z,18
2018-01-28T18:09:00.796Z,23
2018-01-28T18:19:00.718Z,20
2018-01-28T18:29:00.838Z,21
2018-01-28T18:39:00.683Z,20
2018-01-28T18:49:00.793Z,23
2018-01-28T18:59:01.048Z,20
2018-01-28T19:09:00.810Z,26
2018-01-28T19:19:00.978Z,17
2018-01-28T19:29:00.490Z,25
2018-01-28T19:39:00.673Z,26
2018-01-28T19:49:00.638Z,25
2018-01-28T19:59:00.679Z,30
2018-01-28T20:09:00.608Z,26
2018-01-28T20:19:00.874Z,28
2018-01-28T20:29:01.430Z,28
2018-01-28T20:39:00.881Z,23
2018-01-28T20:49:00.712Z,24
2018-01-28T20:59:00.828Z,26
2018-01-28T21:09:00.716Z,22
2018-01-28T21:19:00.759Z,21
2018-01-28T21:29:00.758Z,24
2018-01-28T21:39:00.875Z,22
2018-01-28T21:49:00.702Z,21
2018-01-28T21:59:01.060Z,22
2018-01-28T22:09:01.571Z,26
2018-01-28T22:19:01.232Z,23
2018-01-28T22:29:01.361Z,19
2018-01-28T22:39:01.506Z,19
2018-01-28T22:49:01.283Z,18
2018-01-28T22:59:01.289Z,21
2018-01-28T23:09:00.849Z,20
2018-01-28T23:19:00.744Z,19
2018-01-28T23:29:00.953Z,26
2018-01-28T23:39:00.819Z,16
2018-01-28T23:49:00.856Z,17
2018-01-28T23:59:00.839Z,19
